Cuba, New York
Current Conditions -  °F | °C
As of 1:55 PM on Tuesday 27 Jan 2015 (Local Time) from KOLE Reporting Station
Overcast Overcast  
Wind Chill:   Ceiling: 6000
Heat Index: 14°   Visibility: 10mi
Dew Point:   Wind: 8mph
Humidity: 79%   Direction: 330°NNW
Pressure: 29.84"   Gusts: NA
Location:  42.22°N, 78.28°W
Report Text: KOLE 271855Z AUTO 33007KT 10SM BKN060 OVC075 M10/M13 A2984 RMK AO2
Loading
Personal Weather Stations






























Interactive Weather Map New forecast layout! Learn more

10-Day Weather Forecast

Advertisements
Track Severe Weather on mobile